sensor_id;sensor_type;location;lat;lon;timestamp;P1;durP1;ratioP1;P2;durP2;ratioP2
23290;SDS011;11814;44.686;10.842;2024-02-14T00:00:02;39.03;;;26.52;;
23290;SDS011;11814;44.686;10.842;2024-02-14T00:02:28;62.65;;;41.08;;
23290;SDS011;11814;44.686;10.842;2024-02-14T00:04:53;62.38;;;40.63;;
23290;SDS011;11814;44.686;10.842;2024-02-14T00:07:19;56.38;;;37.58;;
23290;SDS011;11814;44.686;10.842;2024-02-14T00:09:46;69.53;;;44.03;;
23290;SDS011;11814;44.686;10.842;2024-02-14T00:12:12;72.22;;;47.20;;
23290;SDS011;11814;44.686;10.842;2024-02-14T00:14:38;77.97;;;48.97;;
23290;SDS011;11814;44.686;10.842;2024-02-14T00:17:04;64.28;;;42.17;;
23290;SDS011;11814;44.686;10.842;2024-02-14T00:19:31;55.65;;;38.10;;
23290;SDS011;11814;44.686;10.842;2024-02-14T00:21:56;63.10;;;40.72;;
23290;SDS011;11814;44.686;10.842;2024-02-14T00:24:22;67.00;;;43.22;;
23290;SDS011;11814;44.686;10.842;2024-02-14T00:26:51;83.82;;;50.83;;
23290;SDS011;11814;44.686;10.842;2024-02-14T00:29:17;58.95;;;38.55;;
23290;SDS011;11814;44.686;10.842;2024-02-14T00:31:43;69.90;;;45.00;;
23290;SDS011;11814;44.686;10.842;2024-02-14T00:34:09;56.92;;;37.50;;
23290;SDS011;11814;44.686;10.842;2024-02-14T00:36:36;64.43;;;42.90;;
23290;SDS011;11814;44.686;10.842;2024-02-14T00:39:01;64.47;;;41.33;;
23290;SDS011;11814;44.686;10.842;2024-02-14T00:41:27;68.80;;;44.63;;
23290;SDS011;11814;44.686;10.842;2024-02-14T00:43:55;63.92;;;42.00;;
23290;SDS011;11814;44.686;10.842;2024-02-14T00:46:21;55.88;;;37.50;;
23290;SDS011;11814;44.686;10.842;2024-02-14T00:48:47;48.75;;;29.88;;
23290;SDS011;11814;44.686;10.842;2024-02-14T00:51:12;37.78;;;26.35;;
23290;SDS011;11814;44.686;10.842;2024-02-14T00:53:38;37.58;;;25.63;;
23290;SDS011;11814;44.686;10.842;2024-02-14T00:56:04;48.22;;;30.80;;
23290;SDS011;11814;44.686;10.842;2024-02-14T00:58:30;58.80;;;39.28;;
23290;SDS011;11814;44.686;10.842;2024-02-14T01:00:56;59.13;;;40.05;;
23290;SDS011;11814;44.686;10.842;2024-02-14T01:03:22;71.82;;;45.22;;
23290;SDS011;11814;44.686;10.842;2024-02-14T01:05:48;66.60;;;42.70;;
23290;SDS011;11814;44.686;10.842;2024-02-14T01:08:17;70.80;;;44.90;;
23290;SDS011;11814;44.686;10.842;2024-02-14T01:10:42;71.60;;;44.85;;
23290;SDS011;11814;44.686;10.842;2024-02-14T01:13:08;68.15;;;45.35;;
23290;SDS011;11814;44.686;10.842;2024-02-14T01:15:34;63.53;;;42.22;;
23290;SDS011;11814;44.686;10.842;2024-02-14T01:17:59;67.38;;;43.38;;
23290;SDS011;11814;44.686;10.842;2024-02-14T01:20:25;65.68;;;42.90;;
23290;SDS011;11814;44.686;10.842;2024-02-14T01:22:51;67.10;;;40.97;;
23290;SDS011;11814;44.686;10.842;2024-02-14T01:25:17;55.05;;;34.85;;
23290;SDS011;11814;44.686;10.842;2024-02-14T01:27:43;69.18;;;44.08;;
23290;SDS011;11814;44.686;10.842;2024-02-14T01:30:09;55.47;;;37.08;;
23290;SDS011;11814;44.686;10.842;2024-02-14T01:32:35;49.90;;;33.45;;
23290;SDS011;11814;44.686;10.842;2024-02-14T01:35:01;50.70;;;34.55;;
23290;SDS011;11814;44.686;10.842;2024-02-14T01:37:28;62.97;;;42.33;;
23290;SDS011;11814;44.686;10.842;2024-02-14T01:39:55;49.92;;;34.47;;
23290;SDS011;11814;44.686;10.842;2024-02-14T01:42:20;67.13;;;38.60;;
23290;SDS011;11814;44.686;10.842;2024-02-14T01:44:46;67.82;;;44.03;;
23290;SDS011;11814;44.686;10.842;2024-02-14T01:47:12;69.82;;;43.35;;
23290;SDS011;11814;44.686;10.842;2024-02-14T01:49:38;65.60;;;42.42;;
23290;SDS011;11814;44.686;10.842;2024-02-14T01:52:04;57.13;;;38.33;;
23290;SDS011;11814;44.686;10.842;2024-02-14T01:54:30;58.65;;;38.70;;
23290;SDS011;11814;44.686;10.842;2024-02-14T01:56:57;60.92;;;41.05;;
23290;SDS011;11814;44.686;10.842;2024-02-14T01:59:24;61.83;;;40.08;;
23290;SDS011;11814;44.686;10.842;2024-02-14T02:01:49;58.35;;;38.17;;
23290;SDS011;11814;44.686;10.842;2024-02-14T02:04:18;64.45;;;40.65;;
23290;SDS011;11814;44.686;10.842;2024-02-14T02:06:44;60.72;;;38.53;;
23290;SDS011;11814;44.686;10.842;2024-02-14T02:09:10;71.78;;;44.92;;
23290;SDS011;11814;44.686;10.842;2024-02-14T02:11:44;66.43;;;42.50;;
23290;SDS011;11814;44.686;10.842;2024-02-14T02:14:12;82.38;;;50.28;;
23290;SDS011;11814;44.686;10.842;2024-02-14T02:16:38;65.18;;;42.28;;
23290;SDS011;11814;44.686;10.842;2024-02-14T02:19:04;65.38;;;42.10;;
23290;SDS011;11814;44.686;10.842;2024-02-14T02:21:33;68.88;;;43.45;;
23290;SDS011;11814;44.686;10.842;2024-02-14T02:24:00;64.28;;;41.88;;
23290;SDS011;11814;44.686;10.842;2024-02-14T02:26:26;75.85;;;48.38;;
23290;SDS011;11814;44.686;10.842;2024-02-14T02:28:52;70.78;;;44.83;;
23290;SDS011;11814;44.686;10.842;2024-02-14T02:31:18;66.95;;;44.15;;
23290;SDS011;11814;44.686;10.842;2024-02-14T02:33:44;44.65;;;31.88;;
23290;SDS011;11814;44.686;10.842;2024-02-14T02:36:10;47.38;;;33.58;;
23290;SDS011;11814;44.686;10.842;2024-02-14T02:38:36;54.03;;;36.53;;
23290;SDS011;11814;44.686;10.842;2024-02-14T02:41:02;48.28;;;33.75;;
23290;SDS011;11814;44.686;10.842;2024-02-14T02:43:31;62.97;;;39.80;;
23290;SDS011;11814;44.686;10.842;2024-02-14T02:46:00;58.35;;;38.35;;
23290;SDS011;11814;44.686;10.842;2024-02-14T02:48:26;64.40;;;40.88;;
23290;SDS011;11814;44.686;10.842;2024-02-14T02:50:52;53.28;;;38.15;;
23290;SDS011;11814;44.686;10.842;2024-02-14T02:53:18;43.63;;;31.25;;
23290;SDS011;11814;44.686;10.842;2024-02-14T02:55:44;30.50;;;25.00;;
23290;SDS011;11814;44.686;10.842;2024-02-14T02:58:10;35.03;;;26.85;;
23290;SDS011;11814;44.686;10.842;2024-02-14T03:00:36;52.40;;;35.33;;
23290;SDS011;11814;44.686;10.842;2024-02-14T03:03:02;57.92;;;38.33;;
23290;SDS011;11814;44.686;10.842;2024-02-14T03:05:29;54.53;;;35.80;;
23290;SDS011;11814;44.686;10.842;2024-02-14T03:07:57;57.58;;;37.17;;
23290;SDS011;11814;44.686;10.842;2024-02-14T03:10:23;53.92;;;35.85;;
23290;SDS011;11814;44.686;10.842;2024-02-14T03:12:50;54.40;;;37.20;;
23290;SDS011;11814;44.686;10.842;2024-02-14T03:15:16;58.40;;;39.17;;
23290;SDS011;11814;44.686;10.842;2024-02-14T03:17:42;47.97;;;34.78;;
23290;SDS011;11814;44.686;10.842;2024-02-14T03:20:08;58.90;;;39.50;;
23290;SDS011;11814;44.686;10.842;2024-02-14T03:22:43;61.47;;;38.70;;
23290;SDS011;11814;44.686;10.842;2024-02-14T03:25:12;56.90;;;37.67;;
23290;SDS011;11814;44.686;10.842;2024-02-14T03:27:37;41.35;;;31.00;;
23290;SDS011;11814;44.686;10.842;2024-02-14T03:30:03;51.15;;;36.38;;
23290;SDS011;11814;44.686;10.842;2024-02-14T03:32:30;67.57;;;41.38;;
23290;SDS011;11814;44.686;10.842;2024-02-14T03:34:55;53.30;;;36.25;;
23290;SDS011;11814;44.686;10.842;2024-02-14T03:37:21;53.30;;;37.20;;
23290;SDS011;11814;44.686;10.842;2024-02-14T03:39:50;48.50;;;35.55;;
23290;SDS011;11814;44.686;10.842;2024-02-14T03:42:15;48.67;;;35.42;;
23290;SDS011;11814;44.686;10.842;2024-02-14T03:44:41;71.07;;;45.72;;
23290;SDS011;11814;44.686;10.842;2024-02-14T03:47:08;70.05;;;45.30;;
23290;SDS011;11814;44.686;10.842;2024-02-14T03:49:34;67.20;;;42.97;;
23290;SDS011;11814;44.686;10.842;2024-02-14T03:52:00;65.85;;;43.03;;
23290;SDS011;11814;44.686;10.842;2024-02-14T03:54:26;68.18;;;42.35;;
23290;SDS011;11814;44.686;10.842;2024-02-14T03:56:53;59.60;;;40.13;;
23290;SDS011;11814;44.686;10.842;2024-02-14T03:59:20;61.50;;;41.00;;
23290;SDS011;11814;44.686;10.842;2024-02-14T04:01:49;63.78;;;39.45;;
23290;SDS011;11814;44.686;10.842;2024-02-14T04:04:15;56.35;;;38.33;;
23290;SDS011;11814;44.686;10.842;2024-02-14T04:06:42;68.60;;;42.15;;
23290;SDS011;11814;44.686;10.842;2024-02-14T04:09:10;61.97;;;38.95;;
23290;SDS011;11814;44.686;10.842;2024-02-14T04:11:36;62.20;;;41.20;;
23290;SDS011;11814;44.686;10.842;2024-02-14T04:14:01;66.72;;;44.28;;
23290;SDS011;11814;44.686;10.842;2024-02-14T04:16:27;66.82;;;42.63;;
23290;SDS011;11814;44.686;10.842;2024-02-14T04:18:53;60.92;;;40.03;;
23290;SDS011;11814;44.686;10.842;2024-02-14T04:21:20;52.38;;;35.90;;
23290;SDS011;11814;44.686;10.842;2024-02-14T04:23:45;44.72;;;33.53;;
23290;SDS011;11814;44.686;10.842;2024-02-14T04:26:18;55.45;;;35.53;;
23290;SDS011;11814;44.686;10.842;2024-02-14T04:28:47;58.63;;;38.50;;
23290;SDS011;11814;44.686;10.842;2024-02-14T04:31:13;55.17;;;37.83;;
23290;SDS011;11814;44.686;10.842;2024-02-14T04:33:39;52.72;;;36.85;;
23290;SDS011;11814;44.686;10.842;2024-02-14T04:36:04;59.35;;;39.13;;
23290;SDS011;11814;44.686;10.842;2024-02-14T04:38:31;60.22;;;39.47;;
23290;SDS011;11814;44.686;10.842;2024-02-14T04:40:57;54.42;;;37.30;;
23290;SDS011;11814;44.686;10.842;2024-02-14T04:43:23;52.33;;;36.33;;
23290;SDS011;11814;44.686;10.842;2024-02-14T04:45:54;54.88;;;37.05;;
23290;SDS011;11814;44.686;10.842;2024-02-14T04:48:20;57.22;;;37.45;;
23290;SDS011;11814;44.686;10.842;2024-02-14T04:50:45;59.28;;;40.25;;
23290;SDS011;11814;44.686;10.842;2024-02-14T04:53:11;57.47;;;38.55;;
23290;SDS011;11814;44.686;10.842;2024-02-14T04:55:36;53.25;;;36.42;;
23290;SDS011;11814;44.686;10.842;2024-02-14T04:58:02;54.53;;;36.70;;
23290;SDS011;11814;44.686;10.842;2024-02-14T05:00:29;54.22;;;37.45;;
23290;SDS011;11814;44.686;10.842;2024-02-14T05:02:55;55.55;;;38.28;;
23290;SDS011;11814;44.686;10.842;2024-02-14T05:05:22;56.13;;;37.30;;
23290;SDS011;11814;44.686;10.842;2024-02-14T05:07:47;59.20;;;38.63;;
23290;SDS011;11814;44.686;10.842;2024-02-14T05:10:13;62.78;;;40.85;;
23290;SDS011;11814;44.686;10.842;2024-02-14T05:12:39;59.38;;;38.53;;
23290;SDS011;11814;44.686;10.842;2024-02-14T05:15:05;57.47;;;37.08;;
23290;SDS011;11814;44.686;10.842;2024-02-14T05:17:31;60.85;;;40.40;;
23290;SDS011;11814;44.686;10.842;2024-02-14T05:19:57;64.25;;;41.92;;
23290;SDS011;11814;44.686;10.842;2024-02-14T05:22:22;57.83;;;38.63;;
23290;SDS011;11814;44.686;10.842;2024-02-14T05:24:48;58.88;;;39.03;;
23290;SDS011;11814;44.686;10.842;2024-02-14T05:27:14;59.30;;;37.47;;
23290;SDS011;11814;44.686;10.842;2024-02-14T05:29:39;59.72;;;39.88;;
23290;SDS011;11814;44.686;10.842;2024-02-14T05:32:05;66.28;;;40.47;;
23290;SDS011;11814;44.686;10.842;2024-02-14T05:34:31;64.32;;;40.35;;
23290;SDS011;11814;44.686;10.842;2024-02-14T05:36:57;61.50;;;41.65;;
23290;SDS011;11814;44.686;10.842;2024-02-14T05:39:22;61.00;;;40.85;;
23290;SDS011;11814;44.686;10.842;2024-02-14T05:41:48;64.10;;;41.63;;
23290;SDS011;11814;44.686;10.842;2024-02-14T05:44:14;64.90;;;41.25;;
23290;SDS011;11814;44.686;10.842;2024-02-14T05:46:40;59.25;;;38.08;;
23290;SDS011;11814;44.686;10.842;2024-02-14T05:49:06;57.60;;;38.80;;
23290;SDS011;11814;44.686;10.842;2024-02-14T05:51:31;57.95;;;39.40;;
23290;SDS011;11814;44.686;10.842;2024-02-14T05:53:57;62.90;;;40.20;;
23290;SDS011;11814;44.686;10.842;2024-02-14T05:56:23;59.58;;;40.58;;
23290;SDS011;11814;44.686;10.842;2024-02-14T05:58:49;68.88;;;39.22;;
23290;SDS011;11814;44.686;10.842;2024-02-14T06:01:14;62.55;;;40.50;;
23290;SDS011;11814;44.686;10.842;2024-02-14T06:03:43;62.85;;;40.67;;
23290;SDS011;11814;44.686;10.842;2024-02-14T06:06:08;59.53;;;39.20;;
23290;SDS011;11814;44.686;10.842;2024-02-14T06:08:34;71.00;;;41.83;;
23290;SDS011;11814;44.686;10.842;2024-02-14T06:10:59;64.82;;;40.35;;
23290;SDS011;11814;44.686;10.842;2024-02-14T06:13:25;67.55;;;39.25;;
23290;SDS011;11814;44.686;10.842;2024-02-14T06:15:51;61.25;;;38.72;;
23290;SDS011;11814;44.686;10.842;2024-02-14T06:18:16;58.08;;;39.83;;
23290;SDS011;11814;44.686;10.842;2024-02-14T06:20:42;67.20;;;39.33;;
23290;SDS011;11814;44.686;10.842;2024-02-14T06:23:07;61.45;;;37.95;;
23290;SDS011;11814;44.686;10.842;2024-02-14T06:25:33;51.90;;;34.20;;
23290;SDS011;11814;44.686;10.842;2024-02-14T06:27:59;46.55;;;32.10;;
23290;SDS011;11814;44.686;10.842;2024-02-14T06:30:24;49.58;;;33.45;;
23290;SDS011;11814;44.686;10.842;2024-02-14T06:32:50;53.47;;;35.85;;
23290;SDS011;11814;44.686;10.842;2024-02-14T06:35:15;61.78;;;36.70;;
23290;SDS011;11814;44.686;10.842;2024-02-14T06:37:45;65.10;;;45.20;;
23290;SDS011;11814;44.686;10.842;2024-02-14T06:40:11;60.55;;;40.63;;
23290;SDS011;11814;44.686;10.842;2024-02-14T06:42:37;64.28;;;40.55;;
23290;SDS011;11814;44.686;10.842;2024-02-14T06:45:03;54.53;;;33.60;;
23290;SDS011;11814;44.686;10.842;2024-02-14T06:47:29;60.05;;;38.35;;
23290;SDS011;11814;44.686;10.842;2024-02-14T06:49:58;57.53;;;35.60;;
23290;SDS011;11814;44.686;10.842;2024-02-14T06:52:23;57.97;;;38.40;;
23290;SDS011;11814;44.686;10.842;2024-02-14T06:54:49;62.33;;;35.45;;
23290;SDS011;11814;44.686;10.842;2024-02-14T06:57:15;54.72;;;35.28;;
23290;SDS011;11814;44.686;10.842;2024-02-14T06:59:41;55.97;;;35.42;;
23290;SDS011;11814;44.686;10.842;2024-02-14T07:02:07;56.53;;;34.10;;
23290;SDS011;11814;44.686;10.842;2024-02-14T07:04:33;72.43;;;34.90;;
23290;SDS011;11814;44.686;10.842;2024-02-14T07:06:58;55.25;;;32.55;;
23290;SDS011;11814;44.686;10.842;2024-02-14T07:09:25;48.85;;;29.02;;
23290;SDS011;11814;44.686;10.842;2024-02-14T07:11:51;44.53;;;27.30;;
23290;SDS011;11814;44.686;10.842;2024-02-14T07:14:18;43.65;;;26.05;;
23290;SDS011;11814;44.686;10.842;2024-02-14T07:16:44;38.05;;;25.48;;
23290;SDS011;11814;44.686;10.842;2024-02-14T07:19:10;37.72;;;25.77;;
23290;SDS011;11814;44.686;10.842;2024-02-14T07:21:35;49.75;;;25.27;;
23290;SDS011;11814;44.686;10.842;2024-02-14T07:24:02;41.03;;;25.02;;
23290;SDS011;11814;44.686;10.842;2024-02-14T07:26:29;33.50;;;22.15;;
23290;SDS011;11814;44.686;10.842;2024-02-14T07:28:55;42.00;;;22.60;;
23290;SDS011;11814;44.686;10.842;2024-02-14T07:31:21;29.52;;;22.00;;
23290;SDS011;11814;44.686;10.842;2024-02-14T07:33:47;34.83;;;22.52;;
23290;SDS011;11814;44.686;10.842;2024-02-14T07:36:14;31.48;;;23.90;;
23290;SDS011;11814;44.686;10.842;2024-02-14T07:38:43;41.95;;;29.45;;
23290;SDS011;11814;44.686;10.842;2024-02-14T07:41:09;46.85;;;29.40;;
23290;SDS011;11814;44.686;10.842;2024-02-14T07:43:34;38.38;;;28.77;;
23290;SDS011;11814;44.686;10.842;2024-02-14T07:46:00;35.55;;;25.45;;
23290;SDS011;11814;44.686;10.842;2024-02-14T07:48:26;36.42;;;25.85;;
23290;SDS011;11814;44.686;10.842;2024-02-14T07:50:52;30.67;;;24.20;;
23290;SDS011;11814;44.686;10.842;2024-02-14T07:53:18;30.05;;;23.48;;
23290;SDS011;11814;44.686;10.842;2024-02-14T07:55:43;29.15;;;22.73;;
23290;SDS011;11814;44.686;10.842;2024-02-14T07:58:09;30.88;;;21.55;;
23290;SDS011;11814;44.686;10.842;2024-02-14T08:00:36;29.25;;;22.38;;
23290;SDS011;11814;44.686;10.842;2024-02-14T08:03:02;31.15;;;23.05;;
23290;SDS011;11814;44.686;10.842;2024-02-14T08:05:28;31.08;;;20.80;;
23290;SDS011;11814;44.686;10.842;2024-02-14T08:07:54;23.45;;;18.23;;
23290;SDS011;11814;44.686;10.842;2024-02-14T08:10:20;23.02;;;17.90;;
23290;SDS011;11814;44.686;10.842;2024-02-14T08:12:45;21.20;;;17.02;;
23290;SDS011;11814;44.686;10.842;2024-02-14T08:15:12;18.70;;;16.42;;
23290;SDS011;11814;44.686;10.842;2024-02-14T08:17:38;21.30;;;17.13;;
23290;SDS011;11814;44.686;10.842;2024-02-14T08:20:04;24.33;;;15.57;;
23290;SDS011;11814;44.686;10.842;2024-02-14T08:22:30;18.67;;;15.25;;
23290;SDS011;11814;44.686;10.842;2024-02-14T08:24:56;19.73;;;14.18;;
23290;SDS011;11814;44.686;10.842;2024-02-14T08:27:22;18.27;;;14.43;;
23290;SDS011;11814;44.686;10.842;2024-02-14T08:29:48;18.58;;;14.63;;
23290;SDS011;11814;44.686;10.842;2024-02-14T08:32:13;18.17;;;14.20;;
23290;SDS011;11814;44.686;10.842;2024-02-14T08:34:39;15.43;;;12.10;;
23290;SDS011;11814;44.686;10.842;2024-02-14T08:37:05;15.25;;;11.52;;
23290;SDS011;11814;44.686;10.842;2024-02-14T08:39:31;14.27;;;11.30;;
23290;SDS011;11814;44.686;10.842;2024-02-14T08:41:57;12.75;;;10.15;;
23290;SDS011;11814;44.686;10.842;2024-02-14T08:44:23;14.00;;;9.68;;
23290;SDS011;11814;44.686;10.842;2024-02-14T08:46:49;12.23;;;10.50;;
23290;SDS011;11814;44.686;10.842;2024-02-14T08:49:16;12.88;;;9.82;;
23290;SDS011;11814;44.686;10.842;2024-02-14T08:51:42;17.23;;;10.35;;
23290;SDS011;11814;44.686;10.842;2024-02-14T08:54:11;13.20;;;9.73;;
23290;SDS011;11814;44.686;10.842;2024-02-14T08:56:37;14.57;;;9.57;;
23290;SDS011;11814;44.686;10.842;2024-02-14T08:59:02;12.75;;;8.45;;
23290;SDS011;11814;44.686;10.842;2024-02-14T09:01:29;10.70;;;8.57;;
23290;SDS011;11814;44.686;10.842;2024-02-14T09:03:55;10.95;;;8.38;;
23290;SDS011;11814;44.686;10.842;2024-02-14T09:06:22;10.02;;;8.45;;
23290;SDS011;11814;44.686;10.842;2024-02-14T09:08:48;9.80;;;7.63;;
23290;SDS011;11814;44.686;10.842;2024-02-14T09:11:15;8.93;;;7.20;;
23290;SDS011;11814;44.686;10.842;2024-02-14T09:13:41;10.82;;;7.30;;
23290;SDS011;11814;44.686;10.842;2024-02-14T09:16:09;11.02;;;6.97;;
23290;SDS011;11814;44.686;10.842;2024-02-14T09:18:36;9.40;;;7.10;;
23290;SDS011;11814;44.686;10.842;2024-02-14T09:21:02;10.00;;;8.48;;
23290;SDS011;11814;44.686;10.842;2024-02-14T09:23:31;13.40;;;8.88;;
23290;SDS011;11814;44.686;10.842;2024-02-14T09:25:57;11.52;;;8.57;;
23290;SDS011;11814;44.686;10.842;2024-02-14T09:28:23;12.13;;;8.32;;
23290;SDS011;11814;44.686;10.842;2024-02-14T09:30:50;11.00;;;7.70;;
23290;SDS011;11814;44.686;10.842;2024-02-14T09:33:15;11.68;;;8.00;;
23290;SDS011;11814;44.686;10.842;2024-02-14T09:35:41;12.48;;;7.82;;
23290;SDS011;11814;44.686;10.842;2024-02-14T09:38:12;12.43;;;9.60;;
23290;SDS011;11814;44.686;10.842;2024-02-14T09:40:40;12.65;;;10.00;;
23290;SDS011;11814;44.686;10.842;2024-02-14T09:43:08;12.98;;;9.88;;
23290;SDS011;11814;44.686;10.842;2024-02-14T09:45:52;12.20;;;9.98;;
23290;SDS011;11814;44.686;10.842;2024-02-14T09:48:19;11.98;;;9.77;;
23290;SDS011;11814;44.686;10.842;2024-02-14T09:50:46;16.00;;;10.63;;
23290;SDS011;11814;44.686;10.842;2024-02-14T09:53:14;14.80;;;10.18;;
23290;SDS011;11814;44.686;10.842;2024-02-14T09:55:41;17.27;;;10.00;;
23290;SDS011;11814;44.686;10.842;2024-02-14T09:58:07;14.32;;;9.65;;
23290;SDS011;11814;44.686;10.842;2024-02-14T10:00:34;18.90;;;11.48;;
23290;SDS011;11814;44.686;10.842;2024-02-14T10:03:00;14.50;;;12.07;;
23290;SDS011;11814;44.686;10.842;2024-02-14T10:05:26;20.75;;;12.82;;
23290;SDS011;11814;44.686;10.842;2024-02-14T10:07:52;15.82;;;12.38;;
23290;SDS011;11814;44.686;10.842;2024-02-14T10:10:21;15.30;;;11.43;;
23290;SDS011;11814;44.686;10.842;2024-02-14T10:12:47;15.30;;;11.65;;
23290;SDS011;11814;44.686;10.842;2024-02-14T10:15:13;14.93;;;10.95;;
23290;SDS011;11814;44.686;10.842;2024-02-14T10:17:39;13.82;;;10.10;;
23290;SDS011;11814;44.686;10.842;2024-02-14T10:20:06;15.35;;;11.10;;
23290;SDS011;11814;44.686;10.842;2024-02-14T10:22:35;13.25;;;11.50;;
23290;SDS011;11814;44.686;10.842;2024-02-14T10:25:02;16.67;;;12.80;;
23290;SDS011;11814;44.686;10.842;2024-02-14T10:27:29;18.88;;;13.70;;
23290;SDS011;11814;44.686;10.842;2024-02-14T10:29:57;14.82;;;11.70;;
23290;SDS011;11814;44.686;10.842;2024-02-14T10:32:22;15.30;;;11.60;;
23290;SDS011;11814;44.686;10.842;2024-02-14T10:34:49;21.67;;;16.27;;
23290;SDS011;11814;44.686;10.842;2024-02-14T10:37:15;17.23;;;14.35;;
23290;SDS011;11814;44.686;10.842;2024-02-14T10:39:43;16.27;;;12.48;;
23290;SDS011;11814;44.686;10.842;2024-02-14T10:42:12;19.42;;;12.75;;
23290;SDS011;11814;44.686;10.842;2024-02-14T10:44:40;19.77;;;13.60;;
23290;SDS011;11814;44.686;10.842;2024-02-14T10:47:10;19.75;;;14.02;;
23290;SDS011;11814;44.686;10.842;2024-02-14T10:49:39;17.98;;;14.82;;
23290;SDS011;11814;44.686;10.842;2024-02-14T10:52:07;17.88;;;14.75;;
23290;SDS011;11814;44.686;10.842;2024-02-14T10:54:35;16.83;;;13.20;;
23290;SDS011;11814;44.686;10.842;2024-02-14T10:57:03;19.50;;;13.38;;
23290;SDS011;11814;44.686;10.842;2024-02-14T10:59:33;19.83;;;15.18;;
23290;SDS011;11814;44.686;10.842;2024-02-14T11:02:00;21.27;;;15.20;;
23290;SDS011;11814;44.686;10.842;2024-02-14T11:04:26;16.45;;;13.45;;
23290;SDS011;11814;44.686;10.842;2024-02-14T11:06:54;17.20;;;13.70;;
23290;SDS011;11814;44.686;10.842;2024-02-14T11:09:22;18.38;;;13.40;;
23290;SDS011;11814;44.686;10.842;2024-02-14T11:11:59;17.92;;;13.10;;
23290;SDS011;11814;44.686;10.842;2024-02-14T11:14:29;18.88;;;13.38;;
23290;SDS011;11814;44.686;10.842;2024-02-14T11:16:57;17.90;;;13.05;;
23290;SDS011;11814;44.686;10.842;2024-02-14T11:19:30;19.35;;;13.88;;
23290;SDS011;11814;44.686;10.842;2024-02-14T11:22:09;19.73;;;13.68;;
23290;SDS011;11814;44.686;10.842;2024-02-14T11:24:45;18.25;;;13.88;;
23290;SDS011;11814;44.686;10.842;2024-02-14T11:27:14;21.95;;;15.20;;
23290;SDS011;11814;44.686;10.842;2024-02-14T11:29:52;19.10;;;14.13;;
23290;SDS011;11814;44.686;10.842;2024-02-14T11:32:18;20.52;;;15.27;;
23290;SDS011;11814;44.686;10.842;2024-02-14T11:34:53;22.55;;;14.82;;
23290;SDS011;11814;44.686;10.842;2024-02-14T11:37:29;20.67;;;15.30;;
23290;SDS011;11814;44.686;10.842;2024-02-14T11:39:56;20.13;;;15.23;;
23290;SDS011;11814;44.686;10.842;2024-02-14T11:42:23;18.90;;;15.82;;
23290;SDS011;11814;44.686;10.842;2024-02-14T11:44:49;21.85;;;16.02;;
23290;SDS011;11814;44.686;10.842;2024-02-14T11:47:15;20.65;;;15.55;;
23290;SDS011;11814;44.686;10.842;2024-02-14T11:49:41;19.08;;;15.70;;
23290;SDS011;11814;44.686;10.842;2024-02-14T11:52:11;20.95;;;16.98;;
23290;SDS011;11814;44.686;10.842;2024-02-14T11:54:37;22.52;;;17.13;;
23290;SDS011;11814;44.686;10.842;2024-02-14T11:57:03;17.80;;;15.25;;
23290;SDS011;11814;44.686;10.842;2024-02-14T11:59:29;18.63;;;15.10;;
23290;SDS011;11814;44.686;10.842;2024-02-14T12:01:55;23.23;;;16.25;;
23290;SDS011;11814;44.686;10.842;2024-02-14T12:04:23;24.02;;;17.10;;
23290;SDS011;11814;44.686;10.842;2024-02-14T12:06:49;22.80;;;17.42;;
23290;SDS011;11814;44.686;10.842;2024-02-14T12:09:15;23.42;;;17.27;;
23290;SDS011;11814;44.686;10.842;2024-02-14T12:11:40;22.52;;;16.92;;
23290;SDS011;11814;44.686;10.842;2024-02-14T12:14:11;22.38;;;15.75;;
23290;SDS011;11814;44.686;10.842;2024-02-14T12:16:37;20.58;;;15.25;;
23290;SDS011;11814;44.686;10.842;2024-02-14T12:19:22;21.60;;;16.48;;
23290;SDS011;11814;44.686;10.842;2024-02-14T12:21:48;21.05;;;16.75;;
23290;SDS011;11814;44.686;10.842;2024-02-14T12:24:14;26.73;;;18.08;;
23290;SDS011;11814;44.686;10.842;2024-02-14T12:26:40;25.58;;;18.27;;
23290;SDS011;11814;44.686;10.842;2024-02-14T12:29:06;28.17;;;19.08;;
23290;SDS011;11814;44.686;10.842;2024-02-14T12:31:33;22.55;;;18.17;;
23290;SDS011;11814;44.686;10.842;2024-02-14T12:34:00;30.23;;;18.55;;
23290;SDS011;11814;44.686;10.842;2024-02-14T12:36:33;24.70;;;18.30;;
23290;SDS011;11814;44.686;10.842;2024-02-14T12:39:00;24.55;;;17.85;;
23290;SDS011;11814;44.686;10.842;2024-02-14T12:41:29;25.27;;;19.50;;
23290;SDS011;11814;44.686;10.842;2024-02-14T12:43:56;27.38;;;19.20;;
23290;SDS011;11814;44.686;10.842;2024-02-14T12:46:22;29.70;;;20.63;;
23290;SDS011;11814;44.686;10.842;2024-02-14T12:48:47;25.20;;;19.52;;
23290;SDS011;11814;44.686;10.842;2024-02-14T12:51:13;27.98;;;19.77;;
23290;SDS011;11814;44.686;10.842;2024-02-14T12:53:39;27.60;;;20.67;;
23290;SDS011;11814;44.686;10.842;2024-02-14T12:56:05;29.67;;;21.58;;
23290;SDS011;11814;44.686;10.842;2024-02-14T12:58:32;28.42;;;21.42;;
23290;SDS011;11814;44.686;10.842;2024-02-14T13:00:58;27.92;;;20.15;;
23290;SDS011;11814;44.686;10.842;2024-02-14T13:03:24;25.98;;;19.45;;
23290;SDS011;11814;44.686;10.842;2024-02-14T13:05:50;31.92;;;20.95;;
23290;SDS011;11814;44.686;10.842;2024-02-14T13:08:18;28.35;;;20.17;;
23290;SDS011;11814;44.686;10.842;2024-02-14T13:10:45;30.17;;;20.27;;
23290;SDS011;11814;44.686;10.842;2024-02-14T13:13:14;29.25;;;20.38;;
23290;SDS011;11814;44.686;10.842;2024-02-14T13:15:39;29.50;;;19.75;;
23290;SDS011;11814;44.686;10.842;2024-02-14T13:18:07;29.27;;;20.02;;
23290;SDS011;11814;44.686;10.842;2024-02-14T13:20:36;27.15;;;19.52;;
23290;SDS011;11814;44.686;10.842;2024-02-14T13:23:06;28.23;;;19.52;;
23290;SDS011;11814;44.686;10.842;2024-02-14T13:25:34;26.23;;;18.67;;
23290;SDS011;11814;44.686;10.842;2024-02-14T13:28:01;27.30;;;18.98;;
23290;SDS011;11814;44.686;10.842;2024-02-14T13:30:30;26.00;;;18.05;;
23290;SDS011;11814;44.686;10.842;2024-02-14T13:32:56;25.70;;;16.98;;
23290;SDS011;11814;44.686;10.842;2024-02-14T13:35:22;27.40;;;19.23;;
23290;SDS011;11814;44.686;10.842;2024-02-14T13:37:48;29.00;;;18.30;;
23290;SDS011;11814;44.686;10.842;2024-02-14T13:40:14;29.25;;;20.25;;
23290;SDS011;11814;44.686;10.842;2024-02-14T13:42:40;31.45;;;21.50;;
23290;SDS011;11814;44.686;10.842;2024-02-14T13:45:06;27.80;;;20.65;;
23290;SDS011;11814;44.686;10.842;2024-02-14T13:47:38;27.08;;;18.48;;
23290;SDS011;11814;44.686;10.842;2024-02-14T13:50:05;32.95;;;24.23;;
23290;SDS011;11814;44.686;10.842;2024-02-14T13:52:32;37.25;;;24.50;;
23290;SDS011;11814;44.686;10.842;2024-02-14T13:54:59;31.63;;;23.30;;
23290;SDS011;11814;44.686;10.842;2024-02-14T13:57:24;30.23;;;21.30;;
23290;SDS011;11814;44.686;10.842;2024-02-14T13:59:50;26.88;;;19.35;;
23290;SDS011;11814;44.686;10.842;2024-02-14T14:02:15;36.95;;;25.80;;
23290;SDS011;11814;44.686;10.842;2024-02-14T14:04:41;33.92;;;23.13;;
23290;SDS011;11814;44.686;10.842;2024-02-14T14:07:07;27.33;;;19.98;;